Terminal Aerodrome Forecast
Issued by NWS

Home | Current Version | Previous Version | Text Only | Print | Product List | Glossary Off
Versions: 1 2 3 4 5 6 7 8 9 10 11 12 13 14 15 16 17 18 19 20 21 22 23 24 25

000
FTUS43 KICT 251500 AAB
TAFHUT
TAF AMD
KHUT 251509Z 2515/2612 VRB05KT 5SM BR SKC
     FM251600 07005KT P6SM SKC
     FM252000 12007KT P6SM SKC=

USA.gov is the U.S. government's official web portal to all federal, state and local government web resources and services.